sensor_id;sensor_type;location;lat;lon;timestamp;temperature;humidity
11922;DHT22;6021;51.182;3.160;2023-02-18T00:01:41;11.20;99.90
11922;DHT22;6021;51.182;3.160;2023-02-18T00:04:10;11.30;99.90
11922;DHT22;6021;51.182;3.160;2023-02-18T00:06:39;11.40;99.90
11922;DHT22;6021;51.182;3.160;2023-02-18T00:09:07;11.40;99.90
11922;DHT22;6021;51.182;3.160;2023-02-18T00:11:37;11.40;99.90
11922;DHT22;6021;51.182;3.160;2023-02-18T00:14:10;11.30;99.90
11922;DHT22;6021;51.182;3.160;2023-02-18T00:16:37;11.40;99.90
11922;DHT22;6021;51.182;3.160;2023-02-18T00:19:12;11.30;99.90
11922;DHT22;6021;51.182;3.160;2023-02-18T00:21:41;11.30;99.90
11922;DHT22;6021;51.182;3.160;2023-02-18T00:24:12;11.50;99.90
11922;DHT22;6021;51.182;3.160;2023-02-18T00:26:42;11.40;99.90
11922;DHT22;6021;51.182;3.160;2023-02-18T00:29:10;11.30;99.90
11922;DHT22;6021;51.182;3.160;2023-02-18T00:31:39;11.40;99.90
11922;DHT22;6021;51.182;3.160;2023-02-18T00:34:08;11.30;99.90
11922;DHT22;6021;51.182;3.160;2023-02-18T00:36:37;11.30;99.90
11922;DHT22;6021;51.182;3.160;2023-02-18T00:39:07;11.40;99.90
11922;DHT22;6021;51.182;3.160;2023-02-18T00:41:36;11.60;99.90
11922;DHT22;6021;51.182;3.160;2023-02-18T00:44:05;11.30;99.90
11922;DHT22;6021;51.182;3.160;2023-02-18T00:46:34;11.30;99.90
11922;DHT22;6021;51.182;3.160;2023-02-18T00:49:04;11.40;99.90
11922;DHT22;6021;51.182;3.160;2023-02-18T00:51:33;11.40;99.90
11922;DHT22;6021;51.182;3.160;2023-02-18T00:54:01;11.50;99.90
11922;DHT22;6021;51.182;3.160;2023-02-18T00:56:30;11.40;99.90
11922;DHT22;6021;51.182;3.160;2023-02-18T00:58:58;11.60;99.90
11922;DHT22;6021;51.182;3.160;2023-02-18T01:01:27;11.50;99.90
11922;DHT22;6021;51.182;3.160;2023-02-18T01:03:55;11.30;99.90
11922;DHT22;6021;51.182;3.160;2023-02-18T01:06:23;11.50;99.90
11922;DHT22;6021;51.182;3.160;2023-02-18T01:08:52;11.40;99.90
11922;DHT22;6021;51.182;3.160;2023-02-18T01:11:20;11.40;99.90
11922;DHT22;6021;51.182;3.160;2023-02-18T01:13:49;11.40;99.90
11922;DHT22;6021;51.182;3.160;2023-02-18T01:16:18;11.40;99.90
11922;DHT22;6021;51.182;3.160;2023-02-18T01:18:46;11.60;99.90
11922;DHT22;6021;51.182;3.160;2023-02-18T01:21:15;11.60;99.90
11922;DHT22;6021;51.182;3.160;2023-02-18T01:23:43;11.70;99.90
11922;DHT22;6021;51.182;3.160;2023-02-18T01:26:12;11.50;99.90
11922;DHT22;6021;51.182;3.160;2023-02-18T01:28:41;11.60;99.90
11922;DHT22;6021;51.182;3.160;2023-02-18T01:31:12;11.60;99.90
11922;DHT22;6021;51.182;3.160;2023-02-18T01:33:42;11.70;99.90
11922;DHT22;6021;51.182;3.160;2023-02-18T01:36:11;11.60;99.90
11922;DHT22;6021;51.182;3.160;2023-02-18T01:38:40;11.70;99.90
11922;DHT22;6021;51.182;3.160;2023-02-18T01:41:10;11.40;99.90
11922;DHT22;6021;51.182;3.160;2023-02-18T01:43:38;11.70;99.90
11922;DHT22;6021;51.182;3.160;2023-02-18T01:46:16;11.40;99.90
11922;DHT22;6021;51.182;3.160;2023-02-18T01:48:50;11.50;99.90
11922;DHT22;6021;51.182;3.160;2023-02-18T01:51:25;11.30;99.90
11922;DHT22;6021;51.182;3.160;2023-02-18T01:54:05;11.30;99.90
11922;DHT22;6021;51.182;3.160;2023-02-18T01:56:43;11.20;99.90
11922;DHT22;6021;51.182;3.160;2023-02-18T01:59:12;11.20;99.90
11922;DHT22;6021;51.182;3.160;2023-02-18T02:01:43;11.30;99.90
11922;DHT22;6021;51.182;3.160;2023-02-18T02:04:12;11.30;99.90
11922;DHT22;6021;51.182;3.160;2023-02-18T02:06:41;11.40;99.90
11922;DHT22;6021;51.182;3.160;2023-02-18T02:09:11;11.40;99.90
11922;DHT22;6021;51.182;3.160;2023-02-18T02:14:51;11.60;99.90
11922;DHT22;6021;51.182;3.160;2023-02-18T02:25:52;11.20;99.90
11922;DHT22;6021;51.182;3.160;2023-02-18T02:28:39;11.30;99.90
11922;DHT22;6021;51.182;3.160;2023-02-18T02:37:37;11.00;99.90
11922;DHT22;6021;51.182;3.160;2023-02-18T02:48:45;11.10;99.90
11922;DHT22;6021;51.182;3.160;2023-02-18T02:51:35;11.00;99.90
11922;DHT22;6021;51.182;3.160;2023-02-18T02:54:18;11.20;99.90
11922;DHT22;6021;51.182;3.160;2023-02-18T02:56:47;11.10;99.90
11922;DHT22;6021;51.182;3.160;2023-02-18T02:59:18;11.10;99.90
11922;DHT22;6021;51.182;3.160;2023-02-18T03:01:56;11.20;99.90
11922;DHT22;6021;51.182;3.160;2023-02-18T03:16:04;11.10;99.90
11922;DHT22;6021;51.182;3.160;2023-02-18T03:18:37;11.20;99.90
11922;DHT22;6021;51.182;3.160;2023-02-18T03:24:01;11.00;99.90
11922;DHT22;6021;51.182;3.160;2023-02-18T03:26:32;11.10;99.90
11922;DHT22;6021;51.182;3.160;2023-02-18T03:29:02;11.10;99.90
11922;DHT22;6021;51.182;3.160;2023-02-18T03:31:35;11.10;99.90
11922;DHT22;6021;51.182;3.160;2023-02-18T03:34:08;11.00;99.90
11922;DHT22;6021;51.182;3.160;2023-02-18T03:36:37;11.00;99.90
11922;DHT22;6021;51.182;3.160;2023-02-18T03:42:00;11.20;99.90
11922;DHT22;6021;51.182;3.160;2023-02-18T03:44:30;11.10;99.90
11922;DHT22;6021;51.182;3.160;2023-02-18T03:47:00;11.00;99.90
11922;DHT22;6021;51.182;3.160;2023-02-18T03:49:28;11.00;99.90
11922;DHT22;6021;51.182;3.160;2023-02-18T03:51:57;11.00;99.90
11922;DHT22;6021;51.182;3.160;2023-02-18T03:54:25;10.90;99.90
11922;DHT22;6021;51.182;3.160;2023-02-18T03:56:53;11.10;99.90
11922;DHT22;6021;51.182;3.160;2023-02-18T03:59:22;11.00;99.90
11922;DHT22;6021;51.182;3.160;2023-02-18T04:01:50;11.00;99.90
11922;DHT22;6021;51.182;3.160;2023-02-18T04:04:19;11.10;99.90
11922;DHT22;6021;51.182;3.160;2023-02-18T04:06:47;11.00;99.90
11922;DHT22;6021;51.182;3.160;2023-02-18T04:09:15;11.00;99.90
11922;DHT22;6021;51.182;3.160;2023-02-18T04:11:44;11.00;99.90
11922;DHT22;6021;51.182;3.160;2023-02-18T04:14:13;11.00;99.90
11922;DHT22;6021;51.182;3.160;2023-02-18T04:16:42;11.10;99.90
11922;DHT22;6021;51.182;3.160;2023-02-18T04:19:10;11.00;99.90
11922;DHT22;6021;51.182;3.160;2023-02-18T04:21:38;11.00;99.90
11922;DHT22;6021;51.182;3.160;2023-02-18T04:24:07;11.00;99.90
11922;DHT22;6021;51.182;3.160;2023-02-18T04:26:35;10.90;99.90
11922;DHT22;6021;51.182;3.160;2023-02-18T04:29:04;11.10;99.90
11922;DHT22;6021;51.182;3.160;2023-02-18T04:31:32;10.90;99.90
11922;DHT22;6021;51.182;3.160;2023-02-18T04:34:00;11.00;99.90
11922;DHT22;6021;51.182;3.160;2023-02-18T04:36:31;11.00;99.90
11922;DHT22;6021;51.182;3.160;2023-02-18T04:39:00;11.00;99.90
11922;DHT22;6021;51.182;3.160;2023-02-18T04:41:28;11.00;99.90
11922;DHT22;6021;51.182;3.160;2023-02-18T04:43:57;10.90;99.90
11922;DHT22;6021;51.182;3.160;2023-02-18T04:46:26;10.90;99.90
11922;DHT22;6021;51.182;3.160;2023-02-18T04:48:54;10.70;99.90
11922;DHT22;6021;51.182;3.160;2023-02-18T04:51:22;10.70;99.90
11922;DHT22;6021;51.182;3.160;2023-02-18T04:53:51;10.60;99.90
11922;DHT22;6021;51.182;3.160;2023-02-18T04:56:19;10.60;99.90
11922;DHT22;6021;51.182;3.160;2023-02-18T04:58:47;10.70;99.90
11922;DHT22;6021;51.182;3.160;2023-02-18T05:01:16;10.70;99.90
11922;DHT22;6021;51.182;3.160;2023-02-18T05:03:44;10.70;99.90
11922;DHT22;6021;51.182;3.160;2023-02-18T05:06:13;10.70;99.90
11922;DHT22;6021;51.182;3.160;2023-02-18T05:08:41;10.90;99.90
11922;DHT22;6021;51.182;3.160;2023-02-18T05:11:09;10.80;99.90
11922;DHT22;6021;51.182;3.160;2023-02-18T05:13:38;10.80;99.90
11922;DHT22;6021;51.182;3.160;2023-02-18T05:16:06;10.70;99.90
11922;DHT22;6021;51.182;3.160;2023-02-18T05:18:34;10.70;99.90
11922;DHT22;6021;51.182;3.160;2023-02-18T05:21:03;11.00;99.90
11922;DHT22;6021;51.182;3.160;2023-02-18T05:23:31;10.80;99.90
11922;DHT22;6021;51.182;3.160;2023-02-18T05:26:00;10.70;99.90
11922;DHT22;6021;51.182;3.160;2023-02-18T05:28:28;10.90;99.90
11922;DHT22;6021;51.182;3.160;2023-02-18T05:30:57;10.80;99.90
11922;DHT22;6021;51.182;3.160;2023-02-18T05:33:25;10.70;99.90
11922;DHT22;6021;51.182;3.160;2023-02-18T05:35:54;10.70;99.90
11922;DHT22;6021;51.182;3.160;2023-02-18T05:38:23;10.60;99.90
11922;DHT22;6021;51.182;3.160;2023-02-18T05:40:51;10.80;99.90
11922;DHT22;6021;51.182;3.160;2023-02-18T05:43:20;10.60;99.90
11922;DHT22;6021;51.182;3.160;2023-02-18T05:45:48;10.80;99.90
11922;DHT22;6021;51.182;3.160;2023-02-18T05:48:16;10.70;99.90
11922;DHT22;6021;51.182;3.160;2023-02-18T05:50:45;10.70;99.90
11922;DHT22;6021;51.182;3.160;2023-02-18T05:53:14;10.60;99.90
11922;DHT22;6021;51.182;3.160;2023-02-18T05:55:42;10.60;99.90
11922;DHT22;6021;51.182;3.160;2023-02-18T05:58:11;10.70;99.90
11922;DHT22;6021;51.182;3.160;2023-02-18T06:00:40;10.70;99.90
11922;DHT22;6021;51.182;3.160;2023-02-18T06:03:08;10.60;99.90
11922;DHT22;6021;51.182;3.160;2023-02-18T06:05:36;10.70;99.90
11922;DHT22;6021;51.182;3.160;2023-02-18T06:08:05;10.60;99.90
11922;DHT22;6021;51.182;3.160;2023-02-18T06:10:33;10.60;99.90
11922;DHT22;6021;51.182;3.160;2023-02-18T06:13:01;10.70;99.90
11922;DHT22;6021;51.182;3.160;2023-02-18T06:15:30;10.70;99.90
11922;DHT22;6021;51.182;3.160;2023-02-18T06:17:58;10.70;99.90
11922;DHT22;6021;51.182;3.160;2023-02-18T06:20:27;10.60;99.90
11922;DHT22;6021;51.182;3.160;2023-02-18T06:22:55;10.70;99.90
11922;DHT22;6021;51.182;3.160;2023-02-18T06:25:24;10.70;99.90
11922;DHT22;6021;51.182;3.160;2023-02-18T06:27:52;10.70;99.90
11922;DHT22;6021;51.182;3.160;2023-02-18T06:30:20;10.60;99.90
11922;DHT22;6021;51.182;3.160;2023-02-18T06:32:49;10.60;99.90
11922;DHT22;6021;51.182;3.160;2023-02-18T06:35:17;10.40;99.90
11922;DHT22;6021;51.182;3.160;2023-02-18T06:37:45;10.50;99.90
11922;DHT22;6021;51.182;3.160;2023-02-18T06:40:16;10.60;99.90
11922;DHT22;6021;51.182;3.160;2023-02-18T06:42:44;10.70;99.90
11922;DHT22;6021;51.182;3.160;2023-02-18T06:45:13;10.60;99.90
11922;DHT22;6021;51.182;3.160;2023-02-18T06:47:41;10.70;99.90
11922;DHT22;6021;51.182;3.160;2023-02-18T06:50:10;10.60;99.90
11922;DHT22;6021;51.182;3.160;2023-02-18T06:52:38;10.40;99.90
11922;DHT22;6021;51.182;3.160;2023-02-18T06:55:09;10.40;99.90
11922;DHT22;6021;51.182;3.160;2023-02-18T06:57:37;10.30;99.90
11922;DHT22;6021;51.182;3.160;2023-02-18T07:00:06;10.60;99.90
11922;DHT22;6021;51.182;3.160;2023-02-18T07:02:35;10.30;99.90
11922;DHT22;6021;51.182;3.160;2023-02-18T07:05:04;10.40;99.90
11922;DHT22;6021;51.182;3.160;2023-02-18T07:07:32;10.40;99.90
11922;DHT22;6021;51.182;3.160;2023-02-18T07:10:01;10.40;99.90
11922;DHT22;6021;51.182;3.160;2023-02-18T07:12:30;10.60;99.90
11922;DHT22;6021;51.182;3.160;2023-02-18T07:14:58;10.30;99.90
11922;DHT22;6021;51.182;3.160;2023-02-18T07:17:27;10.30;99.90
11922;DHT22;6021;51.182;3.160;2023-02-18T07:19:56;10.20;99.90
11922;DHT22;6021;51.182;3.160;2023-02-18T07:22:24;10.30;99.90
11922;DHT22;6021;51.182;3.160;2023-02-18T07:24:53;10.20;99.90
11922;DHT22;6021;51.182;3.160;2023-02-18T07:27:22;10.00;99.90
11922;DHT22;6021;51.182;3.160;2023-02-18T07:29:50;10.20;99.90
11922;DHT22;6021;51.182;3.160;2023-02-18T07:32:19;10.10;99.90
11922;DHT22;6021;51.182;3.160;2023-02-18T07:34:49;10.00;99.90
11922;DHT22;6021;51.182;3.160;2023-02-18T07:37:19;10.00;99.90
11922;DHT22;6021;51.182;3.160;2023-02-18T07:39:47;10.00;99.90
11922;DHT22;6021;51.182;3.160;2023-02-18T07:42:16;10.10;99.90
11922;DHT22;6021;51.182;3.160;2023-02-18T07:44:44;10.30;99.90
11922;DHT22;6021;51.182;3.160;2023-02-18T07:47:15;10.30;99.90
11922;DHT22;6021;51.182;3.160;2023-02-18T07:49:46;10.40;99.90
11922;DHT22;6021;51.182;3.160;2023-02-18T07:52:15;10.40;99.90
11922;DHT22;6021;51.182;3.160;2023-02-18T07:54:43;10.70;99.90
11922;DHT22;6021;51.182;3.160;2023-02-18T07:57:13;10.60;99.90
11922;DHT22;6021;51.182;3.160;2023-02-18T07:59:42;10.60;99.90
11922;DHT22;6021;51.182;3.160;2023-02-18T08:02:22;10.90;99.90
11922;DHT22;6021;51.182;3.160;2023-02-18T08:04:50;10.70;99.90
11922;DHT22;6021;51.182;3.160;2023-02-18T08:07:20;10.80;98.00
11922;DHT22;6021;51.182;3.160;2023-02-18T08:09:49;10.80;98.70
11922;DHT22;6021;51.182;3.160;2023-02-18T08:12:18;11.10;99.90
11922;DHT22;6021;51.182;3.160;2023-02-18T08:14:46;10.90;92.60
11922;DHT22;6021;51.182;3.160;2023-02-18T08:17:15;10.90;90.00
11922;DHT22;6021;51.182;3.160;2023-02-18T08:19:44;11.30;97.40
11922;DHT22;6021;51.182;3.160;2023-02-18T08:22:12;11.00;94.30
11922;DHT22;6021;51.182;3.160;2023-02-18T08:24:41;11.10;96.00
11922;DHT22;6021;51.182;3.160;2023-02-18T08:27:09;11.00;98.10
11922;DHT22;6021;51.182;3.160;2023-02-18T08:29:39;11.00;93.00
11922;DHT22;6021;51.182;3.160;2023-02-18T08:32:08;11.20;94.10
11922;DHT22;6021;51.182;3.160;2023-02-18T08:34:36;11.10;93.10
11922;DHT22;6021;51.182;3.160;2023-02-18T08:37:04;11.30;86.30
11922;DHT22;6021;51.182;3.160;2023-02-18T08:39:36;11.60;82.50
11922;DHT22;6021;51.182;3.160;2023-02-18T08:42:05;11.40;91.20
11922;DHT22;6021;51.182;3.160;2023-02-18T08:44:33;11.20;91.60
11922;DHT22;6021;51.182;3.160;2023-02-18T08:47:02;11.10;93.10
11922;DHT22;6021;51.182;3.160;2023-02-18T08:49:30;11.00;99.90
11922;DHT22;6021;51.182;3.160;2023-02-18T08:52:00;11.30;99.90
11922;DHT22;6021;51.182;3.160;2023-02-18T08:54:29;11.20;99.90
11922;DHT22;6021;51.182;3.160;2023-02-18T08:56:58;11.20;99.90
11922;DHT22;6021;51.182;3.160;2023-02-18T08:59:27;11.30;99.50
11922;DHT22;6021;51.182;3.160;2023-02-18T09:01:56;11.30;99.30
11922;DHT22;6021;51.182;3.160;2023-02-18T09:04:24;11.60;99.00
11922;DHT22;6021;51.182;3.160;2023-02-18T09:06:53;11.30;98.40
11922;DHT22;6021;51.182;3.160;2023-02-18T09:09:22;11.60;96.40
11922;DHT22;6021;51.182;3.160;2023-02-18T09:11:51;11.30;95.40
11922;DHT22;6021;51.182;3.160;2023-02-18T09:14:19;11.30;96.20
11922;DHT22;6021;51.182;3.160;2023-02-18T09:16:48;11.40;96.80
11922;DHT22;6021;51.182;3.160;2023-02-18T09:19:17;11.60;99.90
11922;DHT22;6021;51.182;3.160;2023-02-18T09:21:45;11.50;96.40
11922;DHT22;6021;51.182;3.160;2023-02-18T09:24:14;11.60;93.50
11922;DHT22;6021;51.182;3.160;2023-02-18T09:26:42;11.30;95.40
11922;DHT22;6021;51.182;3.160;2023-02-18T09:29:11;11.70;96.20
11922;DHT22;6021;51.182;3.160;2023-02-18T09:31:41;11.60;95.20
11922;DHT22;6021;51.182;3.160;2023-02-18T09:34:12;11.60;93.30
11922;DHT22;6021;51.182;3.160;2023-02-18T09:36:42;12.00;94.60
11922;DHT22;6021;51.182;3.160;2023-02-18T09:39:11;11.90;92.30
11922;DHT22;6021;51.182;3.160;2023-02-18T09:41:50;11.80;96.50
11922;DHT22;6021;51.182;3.160;2023-02-18T09:44:27;11.80;92.00
11922;DHT22;6021;51.182;3.160;2023-02-18T09:46:59;11.70;95.00
11922;DHT22;6021;51.182;3.160;2023-02-18T09:49:31;11.80;98.70
11922;DHT22;6021;51.182;3.160;2023-02-18T09:52:11;11.80;94.30
11922;DHT22;6021;51.182;3.160;2023-02-18T09:54:41;11.70;99.90
11922;DHT22;6021;51.182;3.160;2023-02-18T10:11:04;11.80;99.90
11922;DHT22;6021;51.182;3.160;2023-02-18T10:13:36;12.00;99.90
11922;DHT22;6021;51.182;3.160;2023-02-18T10:16:08;12.00;99.90
11922;DHT22;6021;51.182;3.160;2023-02-18T10:18:42;11.80;99.90
11922;DHT22;6021;51.182;3.160;2023-02-18T10:21:26;11.90;99.90
11922;DHT22;6021;51.182;3.160;2023-02-18T10:24:00;11.80;99.90
11922;DHT22;6021;51.182;3.160;2023-02-18T10:26:31;12.00;99.90
11922;DHT22;6021;51.182;3.160;2023-02-18T10:29:08;12.10;99.90
11922;DHT22;6021;51.182;3.160;2023-02-18T10:31:39;12.10;93.80
11922;DHT22;6021;51.182;3.160;2023-02-18T10:34:10;12.10;88.20
11922;DHT22;6021;51.182;3.160;2023-02-18T10:42:18;12.20;78.70
11922;DHT22;6021;51.182;3.160;2023-02-18T10:50:36;12.20;77.70
11922;DHT22;6021;51.182;3.160;2023-02-18T10:56:01;12.20;61.40
11922;DHT22;6021;51.182;3.160;2023-02-18T10:58:48;12.60;45.50
11922;DHT22;6021;51.182;3.160;2023-02-18T11:01:31;12.60;52.80
11922;DHT22;6021;51.182;3.160;2023-02-18T11:06:37;12.60;41.70
11922;DHT22;6021;51.182;3.160;2023-02-18T11:09:04;12.70;40.30
11922;DHT22;6021;51.182;3.160;2023-02-18T11:11:37;12.60;46.60
11922;DHT22;6021;51.182;3.160;2023-02-18T11:14:11;12.40;45.40
11922;DHT22;6021;51.182;3.160;2023-02-18T11:16:45;12.40;46.50
11922;DHT22;6021;51.182;3.160;2023-02-18T11:19:38;12.50;39.70
11922;DHT22;6021;51.182;3.160;2023-02-18T11:22:18;12.40;45.50
11922;DHT22;6021;51.182;3.160;2023-02-18T11:24:58;12.50;51.40
11922;DHT22;6021;51.182;3.160;2023-02-18T11:27:41;12.50;40.60
11922;DHT22;6021;51.182;3.160;2023-02-18T11:30:33;12.70;32.30
11922;DHT22;6021;51.182;3.160;2023-02-18T11:33:14;12.60;42.50
11922;DHT22;6021;51.182;3.160;2023-02-18T11:35:39;12.60;40.30
11922;DHT22;6021;51.182;3.160;2023-02-18T11:41:27;12.40;48.40
11922;DHT22;6021;51.182;3.160;2023-02-18T11:43:31;12.70;38.30
11922;DHT22;6021;51.182;3.160;2023-02-18T11:46:16;12.70;32.70
11922;DHT22;6021;51.182;3.160;2023-02-18T11:48:45;13.00;26.80
11922;DHT22;6021;51.182;3.160;2023-02-18T11:54:18;12.90;27.70
11922;DHT22;6021;51.182;3.160;2023-02-18T11:56:34;12.80;27.10
11922;DHT22;6021;51.182;3.160;2023-02-18T11:59:03;13.10;25.50
11922;DHT22;6021;51.182;3.160;2023-02-18T12:01:42;13.00;21.80
11922;DHT22;6021;51.182;3.160;2023-02-18T12:04:15;13.20;14.10
11922;DHT22;6021;51.182;3.160;2023-02-18T12:12:40;13.30;8.50
11922;DHT22;6021;51.182;3.160;2023-02-18T12:15:04;13.30;13.50
11922;DHT22;6021;51.182;3.160;2023-02-18T12:20:47;13.30;6.50
11922;DHT22;6021;51.182;3.160;2023-02-18T12:26:27;13.60;4.60
11922;DHT22;6021;51.182;3.160;2023-02-18T12:36:28;13.60;2.90
11922;DHT22;6021;51.182;3.160;2023-02-18T12:50:21;13.80;1.70
11922;DHT22;6021;51.182;3.160;2023-02-18T12:58:07;13.80;1.60
11922;DHT22;6021;51.182;3.160;2023-02-18T13:03:47;13.70;6.50
11922;DHT22;6021;51.182;3.160;2023-02-18T13:11:52;13.80;16.10
11922;DHT22;6021;51.182;3.160;2023-02-18T13:14:30;13.70;15.60
11922;DHT22;6021;51.182;3.160;2023-02-18T13:17:01;13.70;13.90
11922;DHT22;6021;51.182;3.160;2023-02-18T13:22:22;13.80;17.60
11922;DHT22;6021;51.182;3.160;2023-02-18T13:24:54;13.90;6.80
11922;DHT22;6021;51.182;3.160;2023-02-18T13:27:47;14.30;2.50
11922;DHT22;6021;51.182;3.160;2023-02-18T13:30:41;14.00;7.90
11922;DHT22;6021;51.182;3.160;2023-02-18T13:33:25;14.00;2.60
11922;DHT22;6021;51.182;3.160;2023-02-18T13:46:54;13.70;5.10
11922;DHT22;6021;51.182;3.160;2023-02-18T15:15:41;12.20;99.90
11922;DHT22;6021;51.182;3.160;2023-02-18T15:18:15;12.20;99.90
11922;DHT22;6021;51.182;3.160;2023-02-18T15:20:43;12.20;99.90
11922;DHT22;6021;51.182;3.160;2023-02-18T15:23:14;12.30;99.90
11922;DHT22;6021;51.182;3.160;2023-02-18T15:25:48;12.30;99.90
11922;DHT22;6021;51.182;3.160;2023-02-18T15:28:26;12.20;99.90
11922;DHT22;6021;51.182;3.160;2023-02-18T15:30:52;12.30;99.90
11922;DHT22;6021;51.182;3.160;2023-02-18T15:33:21;12.20;99.90
11922;DHT22;6021;51.182;3.160;2023-02-18T15:35:50;12.40;99.90
11922;DHT22;6021;51.182;3.160;2023-02-18T15:38:20;12.30;99.90
11922;DHT22;6021;51.182;3.160;2023-02-18T15:40:52;12.30;99.90
11922;DHT22;6021;51.182;3.160;2023-02-18T15:43:23;12.40;99.90
11922;DHT22;6021;51.182;3.160;2023-02-18T15:45:55;12.30;99.90
11922;DHT22;6021;51.182;3.160;2023-02-18T15:48:42;12.40;99.90
11922;DHT22;6021;51.182;3.160;2023-02-18T15:51:12;12.40;99.90
11922;DHT22;6021;51.182;3.160;2023-02-18T15:53:41;12.30;99.90
11922;DHT22;6021;51.182;3.160;2023-02-18T15:56:21;12.30;99.90
11922;DHT22;6021;51.182;3.160;2023-02-18T15:58:46;12.20;99.90
11922;DHT22;6021;51.182;3.160;2023-02-18T16:01:24;12.20;99.90
11922;DHT22;6021;51.182;3.160;2023-02-18T16:03:52;12.20;99.90
11922;DHT22;6021;51.182;3.160;2023-02-18T16:06:27;12.20;99.90
11922;DHT22;6021;51.182;3.160;2023-02-18T16:11:31;12.10;99.90
11922;DHT22;6021;51.182;3.160;2023-02-18T16:13:58;12.10;99.90
11922;DHT22;6021;51.182;3.160;2023-02-18T16:16:30;12.20;99.90
11922;DHT22;6021;51.182;3.160;2023-02-18T16:19:02;12.20;99.90
11922;DHT22;6021;51.182;3.160;2023-02-18T16:21:38;12.10;99.90
11922;DHT22;6021;51.182;3.160;2023-02-18T16:24:28;12.10;99.90
11922;DHT22;6021;51.182;3.160;2023-02-18T16:27:00;12.00;99.90
11922;DHT22;6021;51.182;3.160;2023-02-18T16:29:35;11.90;99.90
11922;DHT22;6021;51.182;3.160;2023-02-18T16:32:03;12.00;99.90
11922;DHT22;6021;51.182;3.160;2023-02-18T16:34:32;12.00;99.90
11922;DHT22;6021;51.182;3.160;2023-02-18T16:37:02;12.00;99.90
11922;DHT22;6021;51.182;3.160;2023-02-18T16:39:50;11.90;99.90
11922;DHT22;6021;51.182;3.160;2023-02-18T16:42:20;12.00;99.90
11922;DHT22;6021;51.182;3.160;2023-02-18T16:44:49;11.90;99.90
11922;DHT22;6021;51.182;3.160;2023-02-18T16:47:19;11.90;99.90
11922;DHT22;6021;51.182;3.160;2023-02-18T16:49:49;12.00;99.90
11922;DHT22;6021;51.182;3.160;2023-02-18T16:52:18;11.80;99.90
11922;DHT22;6021;51.182;3.160;2023-02-18T16:54:46;11.70;99.90
11922;DHT22;6021;51.182;3.160;2023-02-18T16:57:16;11.90;99.90
11922;DHT22;6021;51.182;3.160;2023-02-18T16:59:44;11.70;99.90
11922;DHT22;6021;51.182;3.160;2023-02-18T17:02:20;11.90;99.90
11922;DHT22;6021;51.182;3.160;2023-02-18T17:04:49;11.60;99.90
11922;DHT22;6021;51.182;3.160;2023-02-18T17:07:19;11.60;99.90
11922;DHT22;6021;51.182;3.160;2023-02-18T17:09:47;11.60;99.90
11922;DHT22;6021;51.182;3.160;2023-02-18T17:12:15;11.60;99.90
11922;DHT22;6021;51.182;3.160;2023-02-18T17:14:44;11.60;99.90
11922;DHT22;6021;51.182;3.160;2023-02-18T17:17:13;11.60;99.90
11922;DHT22;6021;51.182;3.160;2023-02-18T17:19:43;11.60;99.90
11922;DHT22;6021;51.182;3.160;2023-02-18T17:22:12;11.60;99.90
11922;DHT22;6021;51.182;3.160;2023-02-18T17:24:41;11.50;99.90
11922;DHT22;6021;51.182;3.160;2023-02-18T17:27:10;11.50;99.90
11922;DHT22;6021;51.182;3.160;2023-02-18T17:29:38;11.50;99.90
11922;DHT22;6021;51.182;3.160;2023-02-18T17:32:12;11.40;99.90
11922;DHT22;6021;51.182;3.160;2023-02-18T17:34:41;11.50;99.90
11922;DHT22;6021;51.182;3.160;2023-02-18T17:37:12;11.40;99.90
11922;DHT22;6021;51.182;3.160;2023-02-18T17:39:41;11.30;99.90
11922;DHT22;6021;51.182;3.160;2023-02-18T17:42:10;11.50;99.90
11922;DHT22;6021;51.182;3.160;2023-02-18T17:44:40;11.50;99.90
11922;DHT22;6021;51.182;3.160;2023-02-18T17:47:09;11.50;99.90
11922;DHT22;6021;51.182;3.160;2023-02-18T17:49:37;11.60;99.90
11922;DHT22;6021;51.182;3.160;2023-02-18T17:52:05;11.60;99.90
11922;DHT22;6021;51.182;3.160;2023-02-18T17:54:34;11.50;99.90
11922;DHT22;6021;51.182;3.160;2023-02-18T17:57:02;11.50;99.90
11922;DHT22;6021;51.182;3.160;2023-02-18T17:59:30;11.50;99.90
11922;DHT22;6021;51.182;3.160;2023-02-18T18:01:59;11.60;99.90
11922;DHT22;6021;51.182;3.160;2023-02-18T18:04:27;11.40;99.90
11922;DHT22;6021;51.182;3.160;2023-02-18T18:06:56;11.50;99.90
11922;DHT22;6021;51.182;3.160;2023-02-18T18:09:24;11.80;99.90
11922;DHT22;6021;51.182;3.160;2023-02-18T18:11:52;11.50;99.90
11922;DHT22;6021;51.182;3.160;2023-02-18T18:14:21;11.50;99.90
11922;DHT22;6021;51.182;3.160;2023-02-18T18:16:49;11.40;99.90
11922;DHT22;6021;51.182;3.160;2023-02-18T18:19:18;11.40;99.90
11922;DHT22;6021;51.182;3.160;2023-02-18T18:21:46;11.40;99.90
11922;DHT22;6021;51.182;3.160;2023-02-18T18:24:16;11.40;99.90
11922;DHT22;6021;51.182;3.160;2023-02-18T18:26:45;11.50;99.90
11922;DHT22;6021;51.182;3.160;2023-02-18T18:29:13;11.70;99.90
11922;DHT22;6021;51.182;3.160;2023-02-18T18:31:41;11.50;99.90
11922;DHT22;6021;51.182;3.160;2023-02-18T18:34:11;11.60;99.90
11922;DHT22;6021;51.182;3.160;2023-02-18T18:36:42;11.60;99.90
11922;DHT22;6021;51.182;3.160;2023-02-18T18:39:10;11.50;99.90
11922;DHT22;6021;51.182;3.160;2023-02-18T18:41:39;11.50;99.90
11922;DHT22;6021;51.182;3.160;2023-02-18T18:44:09;11.40;99.90
11922;DHT22;6021;51.182;3.160;2023-02-18T18:46:38;11.40;99.90
11922;DHT22;6021;51.182;3.160;2023-02-18T18:49:06;11.40;99.90
11922;DHT22;6021;51.182;3.160;2023-02-18T18:51:34;11.30;99.90
11922;DHT22;6021;51.182;3.160;2023-02-18T18:54:03;11.50;99.90
11922;DHT22;6021;51.182;3.160;2023-02-18T18:56:31;11.30;99.90
11922;DHT22;6021;51.182;3.160;2023-02-18T18:58:59;11.50;99.90
11922;DHT22;6021;51.182;3.160;2023-02-18T19:01:29;11.60;99.90
11922;DHT22;6021;51.182;3.160;2023-02-18T19:03:57;11.50;99.90
11922;DHT22;6021;51.182;3.160;2023-02-18T19:06:25;11.50;99.90
11922;DHT22;6021;51.182;3.160;2023-02-18T19:08:54;11.50;99.90
11922;DHT22;6021;51.182;3.160;2023-02-18T19:11:22;11.50;99.90
11922;DHT22;6021;51.182;3.160;2023-02-18T19:13:50;11.40;99.90
11922;DHT22;6021;51.182;3.160;2023-02-18T19:16:34;11.50;99.90
11922;DHT22;6021;51.182;3.160;2023-02-18T19:18:59;11.30;99.90
11922;DHT22;6021;51.182;3.160;2023-02-18T19:21:27;11.60;99.90
11922;DHT22;6021;51.182;3.160;2023-02-18T19:23:56;11.50;99.90
11922;DHT22;6021;51.182;3.160;2023-02-18T19:26:26;11.50;99.90
11922;DHT22;6021;51.182;3.160;2023-02-18T19:28:54;11.50;99.90
11922;DHT22;6021;51.182;3.160;2023-02-18T19:31:22;11.50;99.90
11922;DHT22;6021;51.182;3.160;2023-02-18T19:33:51;11.60;99.90
11922;DHT22;6021;51.182;3.160;2023-02-18T19:36:20;11.40;99.90
11922;DHT22;6021;51.182;3.160;2023-02-18T19:38:48;11.30;99.90
11922;DHT22;6021;51.182;3.160;2023-02-18T19:41:17;11.40;99.90
11922;DHT22;6021;51.182;3.160;2023-02-18T19:43:46;11.30;99.90
11922;DHT22;6021;51.182;3.160;2023-02-18T19:46:16;11.60;99.90
11922;DHT22;6021;51.182;3.160;2023-02-18T19:48:50;11.60;99.90
11922;DHT22;6021;51.182;3.160;2023-02-18T19:51:19;11.40;99.90
11922;DHT22;6021;51.182;3.160;2023-02-18T19:53:47;11.30;99.90
11922;DHT22;6021;51.182;3.160;2023-02-18T19:56:16;11.30;99.90